Time;durP1;ratioP1;P1;durP2;ratioP2;P2;SDS_P1;SDS_P2;PMS_P1;PMS_P2;Temp;Humidity;BMP_temperature;BMP_pressure;BME280_temperature;BME280_humidity;BME280_pressure;Samples;Min_cycle;Max_cycle;Signal;HPM_P1;HPM_P2
2022/09/11 00:00:50;;;;;;;8.23;4.72;;;13.70;99.90;;;;;;4807316;29;20394;-87
2022/09/11 00:03:17;;;;;;;9.73;5.45;;;13.70;99.90;;;;;;4806560;29;20051;-87
2022/09/11 00:05:43;;;;;;;8.75;5.18;;;13.70;99.90;;;;;;4807506;29;20067;-86
2022/09/11 00:08:12;;;;;;;9.48;4.85;;;13.70;99.90;;;;;;4809192;29;20057;-86
2022/09/11 00:10:39;;;;;;;11.05;5.95;;;13.60;99.90;;;;;;4814043;29;20051;-86
2022/09/11 00:13:11;;;;;;;9.43;5.03;;;13.70;99.90;;;;;;4822595;29;20502;-86
2022/09/11 00:15:44;;;;;;;8.52;5.32;;;14.00;99.90;;;;;;4789542;30;20483;-87
2022/09/11 00:18:13;;;;;;;10.48;5.43;;;13.60;99.90;;;;;;4802770;29;20046;-86
2022/09/11 00:20:48;;;;;;;15.25;6.93;;;13.60;99.90;;;;;;4816283;29;20050;-86
2022/09/11 00:23:16;;;;;;;12.32;6.60;;;13.60;99.90;;;;;;4816784;29;20138;-86
2022/09/11 00:25:45;;;;;;;13.45;7.47;;;13.60;99.90;;;;;;4824271;29;20050;-86
2022/09/11 00:28:19;;;;;;;10.98;6.07;;;13.60;99.90;;;;;;4816346;29;20051;-86
2022/09/11 00:30:47;;;;;;;9.40;5.20;;;13.60;99.90;;;;;;4791817;29;20095;-87
2022/09/11 00:33:14;;;;;;;8.43;4.50;;;13.60;99.90;;;;;;4806813;29;20046;-88
2022/09/11 00:35:41;;;;;;;7.32;4.10;;;13.60;99.90;;;;;;4805585;29;20101;-88
2022/09/11 00:38:07;;;;;;;7.72;4.65;;;13.60;99.90;;;;;;4808970;29;20046;-88
2022/09/11 00:40:46;;;;;;;9.85;5.07;;;13.60;99.90;;;;;;4791253;29;20045;-88
2022/09/11 00:43:16;;;;;;;6.63;3.67;;;13.70;99.90;;;;;;4791370;29;20101;-88
2022/09/11 00:45:45;;;;;;;7.40;4.65;;;13.70;99.90;;;;;;4806830;29;20053;-87
2022/09/11 00:48:16;;;;;;;7.85;4.53;;;13.60;99.90;;;;;;4805762;29;20418;-87
2022/09/11 00:50:47;;;;;;;9.73;5.88;;;13.60;99.90;;;;;;4790112;29;20387;-87
2022/09/11 00:53:16;;;;;;;7.45;4.65;;;13.60;99.90;;;;;;4791303;29;20505;-87
2022/09/11 00:55:47;;;;;;;7.55;4.63;;;13.60;99.90;;;;;;4807221;29;20421;-87
2022/09/11 00:58:18;;;;;;;8.13;4.60;;;13.60;99.90;;;;;;4806325;29;20051;-87
2022/09/11 01:00:44;;;;;;;8.27;4.40;;;13.50;99.90;;;;;;4798549;29;20041;-88
2022/09/11 01:03:10;;;;;;;8.00;4.38;;;13.50;99.90;;;;;;4791497;29;20039;-88
2022/09/11 01:05:40;;;;;;;6.30;3.63;;;13.50;99.90;;;;;;4799051;29;20042;-86
2022/09/11 01:08:13;;;;;;;9.05;5.00;;;13.50;99.90;;;;;;4824504;29;20498;-86
2022/09/11 01:11:27;;;;;;;6.95;4.28;;;13.50;99.90;;;;;;4793693;29;20039;-86
2022/09/11 01:13:59;;;;;;;9.10;5.40;;;13.50;99.90;;;;;;4806893;29;20055;-86
2022/09/11 01:16:39;;;;;;;10.52;5.80;;;13.40;99.90;;;;;;4790976;29;20072;-86
2022/09/11 01:19:53;;;;;;;7.68;4.68;;;13.40;99.90;;;;;;4791549;29;20046;-86
2022/09/11 01:22:50;;;;;;;7.28;4.13;;;13.30;99.90;;;;;;4789669;29;20088;-87
2022/09/11 01:25:55;;;;;;;7.18;3.90;;;13.20;99.90;;;;;;4804376;29;20403;-87
2022/09/11 01:28:45;;;;;;;6.65;3.80;;;13.20;99.90;;;;;;4790809;29;20064;-87
2022/09/11 01:31:14;;;;;;;5.80;3.40;;;13.10;99.90;;;;;;4802764;29;20039;-87
2022/09/11 01:33:46;;;;;;;5.40;3.60;;;13.00;99.90;;;;;;4791050;29;20042;-86
2022/09/11 01:36:25;;;;;;;6.10;3.53;;;13.00;99.90;;;;;;4810602;29;20457;-86
2022/09/11 01:39:01;;;;;;;5.75;3.55;;;12.90;99.90;;;;;;4790501;29;20043;-87
2022/09/11 01:41:29;;;;;;;6.18;3.45;;;12.80;99.90;;;;;;4805306;29;20042;-87
2022/09/11 01:44:10;;;;;;;5.50;3.28;;;12.80;99.90;;;;;;4805678;29;20541;-87
2022/09/11 01:46:41;;;;;;;8.07;4.03;;;12.80;99.90;;;;;;4791063;29;20042;-87
2022/09/11 01:49:24;;;;;;;5.75;3.40;;;12.70;99.90;;;;;;4809754;29;20054;-87
2022/09/11 01:51:54;;;;;;;5.13;3.20;;;12.90;99.90;;;;;;4808925;29;20482;-87
2022/09/11 01:54:24;;;;;;;6.13;3.38;;;12.80;99.90;;;;;;4777986;29;20056;-86
2022/09/11 01:56:54;;;;;;;5.32;3.60;;;12.80;99.90;;;;;;4788357;30;20070;-86
2022/09/11 01:59:32;;;;;;;6.32;3.05;;;12.80;99.90;;;;;;4799480;29;20432;-86
2022/09/11 02:02:05;;;;;;;6.70;3.22;;;12.80;99.90;;;;;;4807613;29;20074;-86
2022/09/11 02:04:48;;;;;;;7.53;3.50;;;12.80;99.90;;;;;;4794340;29;20048;-86
2022/09/11 02:07:28;;;;;;;7.78;4.72;;;12.80;99.90;;;;;;4787677;30;20050;-86
2022/09/11 02:10:04;;;;;;;6.38;4.13;;;12.70;99.90;;;;;;4804176;29;20045;-86
2022/09/11 02:12:39;;;;;;;8.10;3.60;;;12.90;99.90;;;;;;4805888;29;20138;-86
2022/09/11 02:15:07;;;;;;;5.60;3.50;;;12.60;99.90;;;;;;4805210;29;20129;-86
2022/09/11 02:18:00;;;;;;;6.88;3.67;;;12.60;99.90;;;;;;4808568;29;20502;-86
2022/09/11 02:20:27;;;;;;;6.90;4.10;;;12.60;99.90;;;;;;4792790;29;20071;-86
2022/09/11 02:22:53;;;;;;;5.80;3.53;;;12.60;99.90;;;;;;4790248;29;20038;-86
2022/09/11 02:25:19;;;;;;;5.22;2.80;;;12.50;99.90;;;;;;4803102;29;20052;-86
2022/09/11 02:27:45;;;;;;;6.63;3.83;;;12.40;99.90;;;;;;4811694;29;20134;-88
2022/09/11 02:30:12;;;;;;;5.53;3.53;;;12.40;99.90;;;;;;4790233;29;20043;-88
2022/09/11 02:32:41;;;;;;;5.68;3.50;;;12.40;99.90;;;;;;4799015;29;20038;-87
2022/09/11 02:35:08;;;;;;;6.68;3.20;;;12.40;99.90;;;;;;4798102;29;20058;-87
2022/09/11 02:37:51;;;;;;;4.68;2.90;;;12.40;99.90;;;;;;4805847;29;20051;-87
2022/09/11 02:40:40;;;;;;;5.63;3.63;;;12.40;99.90;;;;;;4787327;29;20043;-88
2022/09/11 02:43:39;;;;;;;4.97;2.95;;;12.30;99.90;;;;;;4804944;29;20581;-87
2022/09/11 02:46:28;;;;;;;5.30;3.05;;;12.30;99.90;;;;;;4795286;29;20528;-87
2022/09/11 02:49:20;;;;;;;5.30;3.03;;;12.30;99.90;;;;;;4813427;29;20070;-87
2022/09/11 02:52:04;;;;;;;6.32;3.00;;;12.30;99.90;;;;;;4784110;29;20050;-87
2022/09/11 02:55:00;;;;;;;5.10;3.47;;;12.20;99.90;;;;;;4826908;29;20544;-87
2022/09/11 02:57:42;;;;;;;5.30;2.83;;;12.20;99.90;;;;;;4806608;29;20039;-87
2022/09/11 03:00:09;;;;;;;5.07;3.35;;;12.10;99.90;;;;;;4804902;29;20092;-87
2022/09/11 03:02:41;;;;;;;5.30;3.00;;;12.10;99.90;;;;;;4808477;29;20564;-86
2022/09/11 03:05:09;;;;;;;4.72;2.80;;;12.10;99.90;;;;;;4813491;29;20051;-86
2022/09/11 03:07:35;;;;;;;5.93;3.35;;;12.10;99.90;;;;;;4790613;30;20055;-86
2022/09/11 03:10:00;;;;;;;5.55;3.13;;;12.20;99.90;;;;;;4850523;24;20065;-87
2022/09/11 03:12:27;;;;;;;5.80;3.30;;;12.20;99.90;;;;;;4863635;29;20053;-87
2022/09/11 03:14:52;;;;;;;5.93;3.47;;;12.20;99.90;;;;;;4831972;29;20042;-87
2022/09/11 03:17:18;;;;;;;4.60;3.13;;;12.20;99.90;;;;;;4844734;29;20532;-87
2022/09/11 03:19:44;;;;;;;6.75;4.15;;;12.30;99.90;;;;;;4846659;29;20037;-87
2022/09/11 03:22:10;;;;;;;5.68;3.10;;;12.30;99.90;;;;;;4863231;29;20095;-87
2022/09/11 03:24:38;;;;;;;4.50;2.55;;;12.30;99.90;;;;;;4863111;29;20144;-88
2022/09/11 03:27:04;;;;;;;4.80;2.78;;;12.30;99.90;;;;;;4848041;29;20128;-87
2022/09/11 03:29:30;;;;;;;4.22;2.78;;;12.30;99.90;;;;;;4862579;29;20052;-88
2022/09/11 03:31:57;;;;;;;6.18;3.38;;;12.30;99.90;;;;;;4862772;29;20045;-87
2022/09/11 03:34:24;;;;;;;3.78;2.33;;;12.30;99.90;;;;;;4862530;29;20041;-86
2022/09/11 03:36:50;;;;;;;4.32;2.50;;;12.30;99.90;;;;;;4832109;29;20518;-86
2022/09/11 03:39:16;;;;;;;5.43;2.75;;;12.40;99.90;;;;;;4844833;29;20473;-87
2022/09/11 03:41:42;;;;;;;5.10;3.17;;;12.30;99.90;;;;;;4831705;29;20076;-86
2022/09/11 03:44:08;;;;;;;4.95;2.72;;;12.40;99.90;;;;;;4862770;29;20132;-87
2022/09/11 03:46:34;;;;;;;4.43;2.50;;;12.40;99.90;;;;;;4845650;29;20056;-87
2022/09/11 03:49:01;;;;;;;3.83;2.22;;;12.30;99.90;;;;;;4860977;29;20056;-86
2022/09/11 03:51:26;;;;;;;5.85;3.45;;;12.40;99.90;;;;;;4856636;29;20053;-88
2022/09/11 03:53:52;;;;;;;3.92;2.60;;;12.30;99.90;;;;;;4815405;29;20038;-87
2022/09/11 03:56:19;;;;;;;4.32;2.50;;;12.30;99.90;;;;;;4831582;29;20042;-88
2022/09/11 03:58:45;;;;;;;3.58;2.35;;;12.30;99.90;;;;;;4814231;29;20046;-88
2022/09/11 04:01:13;;;;;;;4.35;2.20;;;12.30;99.90;;;;;;4821305;29;20046;-87
2022/09/11 04:03:40;;;;;;;4.25;2.58;;;12.30;99.90;;;;;;4846997;29;20068;-88
2022/09/11 04:06:06;;;;;;;3.88;2.38;;;12.30;99.90;;;;;;4862655;29;20216;-87
2022/09/11 04:08:32;;;;;;;2.78;2.00;;;12.30;99.90;;;;;;4846862;29;20042;-87
2022/09/11 04:11:03;;;;;;;4.05;2.15;;;12.30;99.90;;;;;;4846931;29;20092;-87
2022/09/11 04:13:31;;;;;;;3.55;2.08;;;12.30;99.90;;;;;;4845570;29;20397;-87
2022/09/11 04:16:08;;;;;;;3.75;2.10;;;12.30;99.90;;;;;;4847175;29;20113;-86
2022/09/11 04:18:37;;;;;;;3.53;2.20;;;12.30;99.90;;;;;;4846583;29;20438;-86
2022/09/11 04:21:07;;;;;;;3.88;2.20;;;12.20;99.90;;;;;;4842288;29;20171;-86
2022/09/11 04:23:33;;;;;;;6.55;3.53;;;12.30;99.90;;;;;;4815995;29;20046;-87
2022/09/11 04:26:00;;;;;;;5.63;3.65;;;12.20;99.90;;;;;;4831782;29;20587;-88
2022/09/11 04:28:30;;;;;;;4.70;2.85;;;12.20;99.90;;;;;;4846555;29;20045;-88
2022/09/11 04:31:01;;;;;;;4.72;2.85;;;12.20;99.90;;;;;;4846820;29;20189;-86
2022/09/11 04:33:27;;;;;;;3.80;2.67;;;12.10;99.90;;;;;;4846167;29;20045;-86
2022/09/11 04:35:52;;;;;;;3.67;2.28;;;12.10;99.90;;;;;;4846924;29;20049;-86
2022/09/11 04:38:18;;;;;;;4.78;2.85;;;12.00;99.90;;;;;;4845757;29;20078;-86
2022/09/11 04:40:44;;;;;;;4.72;2.63;;;12.00;99.90;;;;;;4846651;29;20046;-86
2022/09/11 04:43:10;;;;;;;4.80;2.30;;;12.00;99.90;;;;;;4831219;29;20045;-86
2022/09/11 04:45:37;;;;;;;3.30;2.00;;;11.90;99.90;;;;;;4860989;29;20493;-86
2022/09/11 04:48:03;;;;;;;4.05;2.15;;;11.90;99.90;;;;;;4843049;29;20057;-86
2022/09/11 04:50:30;;;;;;;3.20;1.95;;;11.80;99.90;;;;;;4821341;29;20045;-86
2022/09/11 04:52:57;;;;;;;4.70;2.58;;;11.80;99.90;;;;;;4846429;29;20128;-86
2022/09/11 04:55:23;;;;;;;3.97;1.98;;;11.70;99.90;;;;;;4844056;29;20046;-86
2022/09/11 04:57:49;;;;;;;4.00;2.40;;;11.80;99.90;;;;;;4831599;29;20128;-87
2022/09/11 05:00:15;;;;;;;3.63;2.25;;;12.00;99.90;;;;;;4845282;29;20136;-88
2022/09/11 05:02:41;;;;;;;4.55;2.88;;;11.80;99.90;;;;;;4846744;29;20055;-87
2022/09/11 05:05:08;;;;;;;3.58;2.17;;;11.90;99.90;;;;;;4846141;29;20053;-88
2022/09/11 05:07:34;;;;;;;4.18;2.35;;;11.90;99.90;;;;;;4861437;29;20052;-88
2022/09/11 05:10:01;;;;;;;3.55;2.20;;;11.90;99.90;;;;;;4852237;29;20069;-88
2022/09/11 05:12:30;;;;;;;2.90;2.00;;;12.00;99.90;;;;;;4845981;29;20063;-88
2022/09/11 05:14:56;;;;;;;2.35;1.63;;;12.10;99.90;;;;;;4844224;29;20133;-87
2022/09/11 05:17:22;;;;;;;6.25;3.80;;;12.10;99.90;;;;;;4845215;29;20038;-86
2022/09/11 05:19:48;;;;;;;4.43;2.53;;;12.10;99.90;;;;;;4846100;29;20041;-87
2022/09/11 05:22:14;;;;;;;3.85;2.60;;;12.10;99.90;;;;;;4860877;29;20037;-86
2022/09/11 05:24:40;;;;;;;3.60;2.30;;;12.00;99.90;;;;;;4827384;29;20046;-86
2022/09/11 05:27:07;;;;;;;4.13;2.30;;;12.00;99.90;;;;;;4842596;29;20489;-87
2022/09/11 05:29:32;;;;;;;5.32;2.38;;;12.10;99.90;;;;;;4827801;29;20413;-87
2022/09/11 05:31:58;;;;;;;4.20;2.58;;;12.10;99.90;;;;;;4837023;29;20037;-87
2022/09/11 05:34:27;;;;;;;3.70;2.25;;;12.20;99.90;;;;;;4860648;29;20049;-87
2022/09/11 05:36:54;;;;;;;6.03;2.70;;;12.30;99.90;;;;;;4860929;29;20056;-87
2022/09/11 05:39:20;;;;;;;3.97;2.28;;;12.50;99.90;;;;;;4860913;29;20041;-88
2022/09/11 05:41:50;;;;;;;4.10;2.30;;;12.60;99.90;;;;;;4844747;29;20060;-87
2022/09/11 05:44:16;;;;;;;4.97;3.20;;;12.70;99.90;;;;;;4844704;29;20046;-88
2022/09/11 05:46:41;;;;;;;5.40;3.20;;;12.90;99.90;;;;;;4852677;29;20067;-87
2022/09/11 05:49:07;;;;;;;4.43;3.00;;;13.00;99.90;;;;;;4859181;29;20128;-88
2022/09/11 05:51:36;;;;;;;3.92;2.50;;;13.10;99.90;;;;;;4859916;29;20048;-88
2022/09/11 05:54:02;;;;;;;3.47;2.00;;;13.30;99.90;;;;;;4844298;29;20405;-88
2022/09/11 05:56:28;;;;;;;3.30;2.35;;;13.40;99.90;;;;;;4860530;29;20045;-88
2022/09/11 05:58:54;;;;;;;4.18;2.55;;;13.60;99.90;;;;;;4844615;29;20043;-88
2022/09/11 06:01:26;;;;;;;3.20;2.35;;;13.70;99.90;;;;;;4829153;29;20124;-88
2022/09/11 06:03:52;;;;;;;3.72;2.30;;;13.70;99.90;;;;;;4857743;29;20048;-88
2022/09/11 06:06:20;;;;;;;3.78;2.25;;;13.70;99.90;;;;;;4841419;29;20045;-88
2022/09/11 06:08:47;;;;;;;4.70;2.80;;;13.80;99.90;;;;;;4845719;29;20045;-88
2022/09/11 06:11:15;;;;;;;2.90;1.95;;;14.00;99.90;;;;;;4844701;29;20061;-88
2022/09/11 06:13:42;;;;;;;4.30;2.53;;;14.10;99.90;;;;;;4829592;29;20037;-88
2022/09/11 06:16:14;;;;;;;5.25;2.80;;;14.10;99.90;;;;;;4860171;29;20089;-88
2022/09/11 06:18:40;;;;;;;3.60;2.22;;;14.10;99.90;;;;;;4859601;29;20046;-88
2022/09/11 06:21:09;;;;;;;4.05;2.40;;;14.10;99.90;;;;;;4845247;29;20104;-88
2022/09/11 06:23:36;;;;;;;4.43;2.33;;;14.10;99.90;;;;;;4844716;29;20049;-88
2022/09/11 06:26:07;;;;;;;3.45;2.10;;;14.20;99.90;;;;;;4829314;29;20056;-88
2022/09/11 06:28:35;;;;;;;5.07;2.88;;;14.70;99.90;;;;;;4859996;29;20041;-88
2022/09/11 06:31:04;;;;;;;4.70;3.17;;;15.70;99.90;;;;;;4843317;29;20063;-88
2022/09/11 06:33:32;;;;;;;6.38;3.30;;;17.00;99.90;;;;;;4823121;29;20045;-88
2022/09/11 06:36:00;;;;;;;9.48;3.60;;;18.50;99.90;;;;;;4836425;29;20034;-88
2022/09/11 06:38:26;;;;;;;5.72;3.42;;;20.00;99.90;;;;;;4830538;29;20464;-88
2022/09/11 06:40:53;;;;;;;4.10;3.05;;;21.20;99.90;;;;;;4829545;29;20069;-88
2022/09/11 06:43:19;;;;;;;4.93;2.90;;;22.10;99.90;;;;;;4844454;29;20128;-88
2022/09/11 06:45:47;;;;;;;4.93;2.20;;;22.80;99.90;;;;;;4813924;29;20482;-88
2022/09/11 06:48:14;;;;;;;4.40;2.65;;;23.80;99.90;;;;;;4851133;29;20041;-88
2022/09/11 06:50:39;;;;;;;3.17;2.05;;;24.40;99.90;;;;;;4839572;29;20117;-88
2022/09/11 06:53:09;;;;;;;3.63;2.30;;;25.10;99.90;;;;;;4842860;29;20442;-88
2022/09/11 06:55:35;;;;;;;4.07;2.13;;;25.40;99.90;;;;;;4859821;29;20041;-88
2022/09/11 06:58:01;;;;;;;3.75;2.30;;;26.00;99.90;;;;;;4859687;29;20055;-88
2022/09/11 07:00:27;;;;;;;3.50;1.90;;;26.20;99.80;;;;;;4842668;29;20042;-88
2022/09/11 07:02:54;;;;;;;3.92;2.38;;;26.70;99.90;;;;;;4829279;29;20098;-88
2022/09/11 07:05:24;;;;;;;2.85;1.80;;;27.20;99.20;;;;;;4859714;29;20125;-88
2022/09/11 07:07:54;;;;;;;2.25;1.70;;;27.50;97.30;;;;;;4843970;29;20449;-88
2022/09/11 07:10:21;;;;;;;4.28;2.17;;;28.10;98.40;;;;;;4856573;29;20066;-86
2022/09/11 07:12:47;;;;;;;2.47;1.80;;;28.50;96.40;;;;;;4827031;29;20457;-86
2022/09/11 07:15:13;;;;;;;3.25;1.92;;;28.70;95.40;;;;;;4833198;29;20041;-86
2022/09/11 07:17:39;;;;;;;4.60;2.05;;;28.80;95.40;;;;;;4828953;29;20037;-86
2022/09/11 07:20:08;;;;;;;3.35;1.42;;;29.20;95.60;;;;;;4829184;29;20561;-86
2022/09/11 07:22:34;;;;;;;3.95;1.70;;;29.50;95.70;;;;;;4841267;29;20062;-86
2022/09/11 07:25:00;;;;;;;4.40;1.73;;;30.20;94.10;;;;;;4854308;29;20053;-83
2022/09/11 07:27:26;;;;;;;2.00;1.48;;;30.30;93.30;;;;;;4859726;29;20056;-84
2022/09/11 07:29:52;;;;;;;3.22;1.63;;;30.60;92.90;;;;;;4840317;29;20520;-84
2022/09/11 07:32:18;;;;;;;3.17;1.58;;;30.60;93.50;;;;;;4827717;29;20042;-85
2022/09/11 07:34:46;;;;;;;3.67;1.85;;;30.90;92.50;;;;;;4842555;29;20034;-85
2022/09/11 07:37:12;;;;;;;3.10;1.52;;;31.00;91.60;;;;;;4841702;29;20048;-85
2022/09/11 07:39:38;;;;;;;3.50;1.75;;;31.30;91.30;;;;;;4847225;29;20518;-85
2022/09/11 07:42:05;;;;;;;2.35;1.48;;;31.40;90.20;;;;;;4862744;29;20049;-85
2022/09/11 07:44:31;;;;;;;3.35;1.58;;;31.20;90.90;;;;;;4840779;29;20041;-85
2022/09/11 07:46:57;;;;;;;1.92;1.30;;;31.50;90.00;;;;;;4857263;29;20136;-85
2022/09/11 07:49:23;;;;;;;1.95;1.40;;;31.50;90.50;;;;;;4854970;29;20045;-85
2022/09/11 07:51:49;;;;;;;4.53;1.65;;;31.70;90.80;;;;;;4851506;29;20638;-85
2022/09/11 07:54:14;;;;;;;1.83;1.25;;;32.10;90.00;;;;;;4862578;29;20049;-85
2022/09/11 07:56:40;;;;;;;2.28;1.48;;;32.20;89.10;;;;;;4847056;29;20038;-86
2022/09/11 07:59:07;;;;;;;1.85;1.42;;;32.20;90.10;;;;;;4846804;29;20109;-86
2022/09/11 08:01:33;;;;;;;2.40;1.35;;;32.40;87.70;;;;;;4850834;29;20500;-85
2022/09/11 08:04:07;;;;;;;2.75;1.58;;;32.80;88.10;;;;;;4862293;29;20057;-84
2022/09/11 08:06:35;;;;;;;3.38;1.83;;;32.60;85.60;;;;;;4862077;29;20488;-84
2022/09/11 08:09:06;;;;;;;3.70;1.42;;;32.40;85.90;;;;;;4861975;29;20128;-85
2022/09/11 08:11:40;;;;;;;3.28;1.70;;;32.50;85.00;;;;;;4846906;29;20045;-85
2022/09/11 08:14:06;;;;;;;1.38;1.17;;;32.40;85.40;;;;;;4862197;29;20515;-85
2022/09/11 08:16:34;;;;;;;2.55;1.30;;;32.70;85.20;;;;;;4844104;29;20489;-84
2022/09/11 08:19:00;;;;;;;4.75;1.70;;;33.10;84.80;;;;;;4858808;29;20403;-85
2022/09/11 08:21:26;;;;;;;1.85;1.40;;;33.10;82.50;;;;;;4862265;29;20041;-84
2022/09/11 08:23:52;;;;;;;2.00;1.35;;;33.10;85.20;;;;;;4846612;29;20049;-85
2022/09/11 08:26:20;;;;;;;1.70;1.48;;;33.40;84.70;;;;;;4847118;29;20053;-85
2022/09/11 08:28:49;;;;;;;1.85;1.05;;;32.80;83.90;;;;;;4861897;29;20045;-85
2022/09/11 08:31:16;;;;;;;2.40;1.38;;;32.10;86.70;;;;;;4858721;29;20045;-85
2022/09/11 08:33:42;;;;;;;2.50;1.40;;;32.20;85.00;;;;;;4856952;29;20129;-84
2022/09/11 08:36:09;;;;;;;1.90;1.45;;;31.70;83.20;;;;;;4828416;29;20128;-85
2022/09/11 08:38:37;;;;;;;4.90;1.48;;;30.50;84.90;;;;;;4853955;29;20121;-85
2022/09/11 08:41:14;;;;;;;3.38;1.80;;;29.20;88.30;;;;;;4861957;29;20037;-85
2022/09/11 08:43:49;;;;;;;2.80;1.77;;;27.90;90.20;;;;;;4861733;29;20046;-85
2022/09/11 08:46:15;;;;;;;2.85;1.77;;;26.80;91.20;;;;;;4846342;29;20097;-84
2022/09/11 08:49:00;;;;;;;4.40;1.52;;;26.00;91.70;;;;;;4860036;29;20514;-85
2022/09/11 08:51:26;;;;;;;2.20;1.38;;;25.50;93.90;;;;;;4861360;29;20049;-85
2022/09/11 08:53:54;;;;;;;4.05;1.60;;;25.10;94.10;;;;;;4846080;29;20045;-85
2022/09/11 08:56:22;;;;;;;3.50;1.70;;;25.10;94.40;;;;;;4861681;29;20048;-85
2022/09/11 08:59:21;;;;;;;2.72;1.50;;;24.80;95.30;;;;;;4861567;29;20161;-85
2022/09/11 09:02:13;;;;;;;2.28;1.27;;;24.50;95.60;;;;;;4847296;29;20514;-85
2022/09/11 09:05:25;;;;;;;2.40;1.40;;;24.20;95.90;;;;;;4858190;29;20053;-85
2022/09/11 09:08:12;;;;;;;2.90;1.52;;;25.20;96.90;;;;;;4846028;29;20068;-85
2022/09/11 09:10:49;;;;;;;3.33;1.60;;;27.30;94.00;;;;;;4861039;29;20184;-85
2022/09/11 09:13:47;;;;;;;3.15;1.23;;;29.30;90.80;;;;;;4845672;29;20496;-86
2022/09/11 09:16:33;;;;;;;2.28;1.58;;;30.70;90.50;;;;;;4844661;29;20512;-86
2022/09/11 09:19:08;;;;;;;4.07;2.17;;;31.60;85.80;;;;;;4861308;29;20125;-86
2022/09/11 09:22:06;;;;;;;1.20;1.02;;;32.00;84.60;;;;;;4845544;29;20051;-86
2022/09/11 09:24:41;;;;;;;2.47;1.50;;;33.60;84.20;;;;;;4821262;29;20053;-84
2022/09/11 09:27:18;;;;;;;1.83;1.15;;;34.20;83.90;;;;;;4861239;29;20132;-84
2022/09/11 09:29:47;;;;;;;2.28;1.20;;;34.80;82.50;;;;;;4845502;29;20068;-84
2022/09/11 09:32:22;;;;;;;2.05;1.05;;;34.30;78.40;;;;;;4860621;29;20041;-84
2022/09/11 09:34:52;;;;;;;1.50;0.95;;;33.60;79.00;;;;;;4845513;29;20053;-84
2022/09/11 09:37:24;;;;;;;2.35;1.02;;;32.40;79.30;;;;;;4860938;29;20037;-84
2022/09/11 09:39:51;;;;;;;1.33;0.90;;;30.80;81.10;;;;;;4845200;29;20048;-84
2022/09/11 09:42:58;;;;;;;1.65;1.00;;;29.90;83.70;;;;;;4860177;29;20124;-85
2022/09/11 09:45:58;;;;;;;1.20;1.00;;;29.20;83.70;;;;;;4844572;29;20144;-85
2022/09/11 09:48:24;;;;;;;0.80;0.80;;;29.40;84.70;;;;;;4856163;29;20053;-84
2022/09/11 09:50:51;;;;;;;4.95;1.48;;;30.00;83.60;;;;;;4845104;29;20045;-85
2022/09/11 09:53:40;;;;;;;1.30;1.00;;;29.70;82.70;;;;;;4844321;29;20053;-85
2022/09/11 09:56:09;;;;;;;1.17;0.77;;;29.10;85.00;;;;;;4845493;29;20128;-85
2022/09/11 09:59:07;;;;;;;1.20;1.00;;;29.70;86.60;;;;;;4857534;29;20084;-85
2022/09/11 10:01:50;;;;;;;1.15;0.68;;;31.30;80.80;;;;;;4838818;29;20046;-86
2022/09/11 10:04:21;;;;;;;1.73;0.90;;;32.50;77.10;;;;;;4860090;29;20049;-86
2022/09/11 10:07:13;;;;;;;1.38;0.82;;;33.10;76.60;;;;;;4860565;29;20041;-85
2022/09/11 10:09:48;;;;;;;2.13;0.80;;;34.00;77.60;;;;;;4844274;29;20061;-88
2022/09/11 10:12:17;;;;;;;;;;;34.70;76.20;;;;;;4845531;29;20057;-85
2022/09/11 10:14:50;;;;;;;0.85;0.73;;;35.20;77.10;;;;;;4844460;29;19924;-86
2022/09/11 10:17:31;;;;;;;1.52;0.73;;;35.50;74.10;;;;;;4844873;29;20034;-86
2022/09/11 10:20:12;;;;;;;1.13;0.93;;;35.80;75.90;;;;;;4860292;29;20083;-86
2022/09/11 10:22:38;;;;;;;1.15;0.80;;;36.20;72.90;;;;;;4859829;29;20041;-86
2022/09/11 10:25:15;;;;;;;0.85;0.70;;;35.60;70.80;;;;;;4855744;29;20519;-85
2022/09/11 10:28:04;;;;;;;2.08;1.00;;;35.00;73.00;;;;;;4848248;29;20073;-87
2022/09/11 10:30:32;;;;;;;1.70;1.05;;;34.90;71.50;;;;;;4859944;29;20045;-84
2022/09/11 10:33:01;;;;;;;4.25;1.27;;;35.20;71.40;;;;;;4844473;29;20048;-84
2022/09/11 10:35:29;;;;;;;1.52;1.00;;;35.70;73.80;;;;;;4858991;29;20045;-84
2022/09/11 10:38:11;;;;;;;2.95;0.98;;;36.20;71.20;;;;;;4828101;29;20056;-84
2022/09/11 10:40:39;;;;;;;0.85;0.68;;;36.30;71.90;;;;;;4856166;29;20042;-84
2022/09/11 10:43:17;;;;;;;1.23;0.88;;;36.60;73.40;;;;;;4854442;29;20129;-83
2022/09/11 10:46:18;;;;;;;0.90;0.77;;;37.00;72.80;;;;;;4850175;29;20044;-84
2022/09/11 10:49:05;;;;;;;1.08;0.70;;;37.60;68.30;;;;;;4838762;29;20045;-84
2022/09/11 10:51:34;;;;;;;1.95;0.88;;;37.30;68.70;;;;;;4852492;29;20505;-84
2022/09/11 10:54:38;;;;;;;1.58;0.95;;;37.40;69.20;;;;;;4859869;29;20463;-85
2022/09/11 10:57:16;;;;;;;2.40;1.08;;;37.20;70.10;;;;;;4848474;29;20049;-85
2022/09/11 11:00:01;;;;;;;0.88;0.73;;;36.10;69.70;;;;;;4844253;29;20042;-85
2022/09/11 11:03:08;;;;;;;1.10;0.80;;;34.80;70.80;;;;;;4843359;29;20045;-84
2022/09/11 11:05:59;;;;;;;1.15;0.90;;;33.10;72.00;;;;;;4843089;29;20046;-84
2022/09/11 11:08:49;;;;;;;1.55;0.80;;;31.10;75.80;;;;;;4848960;29;20042;-84
2022/09/11 11:11:41;;;;;;;1.63;0.90;;;29.70;77.40;;;;;;4839977;29;20151;-88
2022/09/11 11:14:31;;;;;;;1.67;0.80;;;28.80;80.50;;;;;;4859193;29;20045;-85
2022/09/11 11:17:18;;;;;;;3.42;1.40;;;28.20;81.50;;;;;;4862690;29;20041;-89
2022/09/11 11:20:14;;;;;;;1.67;0.82;;;27.70;82.00;;;;;;4847484;29;20037;-84
2022/09/11 11:22:59;;;;;;;;;;;27.10;83.50;;;;;;4846161;29;20068;-84
2022/09/11 11:25:46;;;;;;;1.67;1.10;;;26.70;83.20;;;;;;4845586;29;20335;-84
2022/09/11 11:28:22;;;;;;;2.60;0.80;;;26.30;83.80;;;;;;4858679;29;20109;-83
2022/09/11 11:30:51;;;;;;;3.03;1.00;;;26.20;86.00;;;;;;4861697;29;20511;-84
2022/09/11 11:33:41;;;;;;;1.20;0.85;;;26.00;87.20;;;;;;4829637;29;20102;-86
2022/09/11 11:36:24;;;;;;;2.58;1.02;;;25.70;88.20;;;;;;4857992;29;20518;-86
2022/09/11 11:38:59;;;;;;;3.30;0.98;;;25.40;89.70;;;;;;4836592;29;20097;-88
2022/09/11 11:41:45;;;;;;;2.38;1.30;;;25.70;90.80;;;;;;4861366;29;20033;-88
2022/09/11 11:44:14;;;;;;;;;;;26.80;90.10;;;;;;4845500;29;20045;-89
2022/09/11 11:46:51;;;;;;;2.35;1.15;;;27.90;87.10;;;;;;4862365;29;19972;-88
2022/09/11 11:49:41;;;;;;;2.25;1.38;;;28.50;84.20;;;;;;4854670;29;20386;-88
2022/09/11 11:52:25;;;;;;;1.30;0.80;;;28.50;84.10;;;;;;4859881;29;20125;-88
2022/09/11 11:55:01;;;;;;;1.50;0.80;;;28.30;82.60;;;;;;4845390;29;20042;-89
2022/09/11 11:57:33;;;;;;;1.33;0.98;;;28.60;84.00;;;;;;4847016;29;20041;-88
2022/09/11 12:00:10;;;;;;;1.00;0.80;;;29.40;83.20;;;;;;4862321;29;20397;-89
2022/09/11 12:03:00;;;;;;;1.20;0.80;;;29.90;82.00;;;;;;4855119;29;20515;-89
2022/09/11 12:05:31;;;;;;;2.85;1.60;;;30.30;79.50;;;;;;4844067;29;20050;-89
2022/09/11 12:07:57;;;;;;;2.47;0.80;;;30.10;79.10;;;;;;4849325;29;20081;-89
2022/09/11 12:10:33;;;;;;;1.02;0.88;;;30.50;79.00;;;;;;4862206;29;20117;-87
2022/09/11 12:13:14;;;;;;;1.38;0.77;;;30.90;78.20;;;;;;4862487;29;20041;-87
2022/09/11 12:15:57;;;;;;;0.73;0.70;;;30.90;78.30;;;;;;4842723;29;20129;-87
2022/09/11 12:18:23;;;;;;;2.08;1.00;;;31.00;78.40;;;;;;4861800;29;20366;-87
2022/09/11 12:20:50;;;;;;;0.70;0.70;;;31.20;79.10;;;;;;4835421;29;20048;-87
2022/09/11 12:23:57;;;;;;;1.20;0.70;;;31.30;77.70;;;;;;4861513;29;20061;-85
2022/09/11 12:26:24;;;;;;;3.13;0.93;;;31.20;79.10;;;;;;4843634;29;20401;-84
2022/09/11 12:29:14;;;;;;;1.05;0.93;;;31.50;75.60;;;;;;4847131;29;20507;-84
2022/09/11 12:31:49;;;;;;;1.92;0.82;;;31.00;77.00;;;;;;4861540;29;20093;-84
2022/09/11 12:34:17;;;;;;;0.85;0.70;;;30.70;77.00;;;;;;4861905;29;20057;-84
2022/09/11 12:36:54;;;;;;;2.92;0.60;;;30.50;78.10;;;;;;4831028;29;20077;-83
2022/09/11 12:39:31;;;;;;;0.93;0.70;;;30.30;77.90;;;;;;4861484;29;20043;-85
2022/09/11 12:42:24;;;;;;;1.02;0.93;;;29.90;77.70;;;;;;4846213;29;20563;-85
2022/09/11 12:44:50;;;;;;;0.88;0.70;;;29.60;79.10;;;;;;4846542;29;20049;-84
2022/09/11 12:47:28;;;;;;;0.85;0.75;;;29.60;80.90;;;;;;4859761;29;20105;-84
2022/09/11 12:49:59;;;;;;;1.73;0.95;;;29.80;80.70;;;;;;4846115;29;20053;-84
2022/09/11 12:52:35;;;;;;;2.35;0.90;;;29.90;81.20;;;;;;4845604;29;20143;-85
2022/09/11 12:55:03;;;;;;;;;;;30.10;82.30;;;;;;4844973;29;20045;-85
2022/09/11 12:57:35;;;;;;;0.90;0.73;;;30.50;83.40;;;;;;4856305;29;20455;-85
2022/09/11 13:00:19;;;;;;;2.50;0.80;;;30.80;81.20;;;;;;4843076;29;20101;-85
2022/09/11 13:02:51;;;;;;;1.45;0.80;;;31.00;81.00;;;;;;4857886;29;20056;-84
2022/09/11 13:05:36;;;;;;;0.95;0.77;;;31.10;79.70;;;;;;4856539;29;20500;-84
2022/09/11 13:08:08;;;;;;;1.60;1.00;;;31.10;78.90;;;;;;4861385;29;20102;-86
2022/09/11 13:10:36;;;;;;;0.98;0.90;;;30.90;79.80;;;;;;4844811;29;20132;-85
2022/09/11 13:13:23;;;;;;;1.80;0.90;;;30.80;77.70;;;;;;4844714;29;20050;-85
2022/09/11 13:15:51;;;;;;;0.98;0.63;;;30.70;78.30;;;;;;4841267;29;20058;-85
2022/09/11 13:18:24;;;;;;;1.95;0.90;;;30.50;78.80;;;;;;4835436;29;20049;-84